Time;durP1;ratioP1;P1;durP2;ratioP2;P2;SDS_P1;SDS_P2;PMS_P1;PMS_P2;Temp;Humidity;BMP_temperature;BMP_pressure;BME280_temperature;BME280_humidity;BME280_pressure;Samples;Min_cycle;Max_cycle;Signal;HPM_P1;HPM_P2
2023/05/29 00:01:26;;;;;;;2.88;1.10;;;;;;;26.33;32.35;100795.78;4986051;28;20069;-70
2023/05/29 00:03:56;;;;;;;4.50;1.35;;;;;;;26.35;31.81;100791.28;4985959;28;20050;-71
2023/05/29 00:06:25;;;;;;;1.98;1.17;;;;;;;26.42;32.97;100795.44;4983321;28;20068;-73
2023/05/29 00:08:54;;;;;;;3.30;1.20;;;;;;;26.52;32.95;100793.31;4987240;28;20054;-72
2023/05/29 00:11:25;;;;;;;5.18;1.88;;;;;;;26.51;32.25;100784.50;4993623;28;20562;-70
2023/05/29 00:13:54;;;;;;;3.28;1.23;;;;;;;26.46;32.86;100783.81;5004273;28;20061;-69
2023/05/29 00:16:23;;;;;;;2.10;1.17;;;;;;;26.43;32.94;100775.94;5003612;28;20566;-69
2023/05/29 00:18:52;;;;;;;1.83;1.10;;;;;;;26.39;32.12;100778.75;4999595;28;20065;-70
2023/05/29 00:21:24;;;;;;;3.85;1.40;;;;;;;26.28;32.38;100773.88;5001616;28;20048;-70
2023/05/29 00:23:52;;;;;;;2.67;1.60;;;;;;;26.22;33.20;100771.41;5004996;28;20522;-69
2023/05/29 00:26:21;;;;;;;2.95;1.20;;;;;;;26.19;33.17;100772.41;5001819;28;20046;-70
2023/05/29 00:28:49;;;;;;;3.20;1.27;;;;;;;26.22;33.03;100771.41;5003825;28;20050;-70
2023/05/29 00:31:18;;;;;;;4.40;1.35;;;;;;;26.24;33.16;100772.22;5004122;28;20100;-71
2023/05/29 00:33:49;;;;;;;1.85;1.05;;;;;;;26.21;32.40;100764.38;5002675;28;20049;-70
2023/05/29 00:36:18;;;;;;;2.47;1.20;;;;;;;26.20;33.18;100757.34;5003483;28;20054;-70
2023/05/29 00:38:48;;;;;;;4.93;1.45;;;;;;;26.16;32.14;100755.72;5009210;28;20046;-70
2023/05/29 00:41:17;;;;;;;3.35;1.50;;;;;;;26.16;33.30;100753.94;5009127;28;20065;-69
2023/05/29 00:43:46;;;;;;;3.90;1.40;;;;;;;26.15;33.61;100748.69;5007974;28;20046;-70
2023/05/29 00:46:19;;;;;;;3.10;1.20;;;;;;;26.18;33.44;100754.72;5007788;28;20656;-70
2023/05/29 00:48:48;;;;;;;3.63;1.33;;;;;;;26.19;32.38;100743.22;5005665;28;20058;-70
2023/05/29 00:51:18;;;;;;;4.88;1.65;;;;;;;26.13;32.38;100725.72;5002907;28;20042;-70
2023/05/29 00:53:50;;;;;;;4.25;1.27;;;;;;;26.16;32.84;100737.16;5003545;28;20064;-73
2023/05/29 00:56:20;;;;;;;2.80;1.40;;;;;;;26.10;32.37;100739.09;5006481;28;20053;-69
2023/05/29 00:58:49;;;;;;;2.88;1.40;;;;;;;26.08;31.92;100732.97;5006322;28;21062;-71
2023/05/29 01:01:19;;;;;;;4.75;1.42;;;;;;;26.09;32.07;100737.38;5006908;28;20832;-72
2023/05/29 01:03:49;;;;;;;1.90;1.30;;;;;;;26.07;32.30;100736.56;5006617;28;20050;-69
2023/05/29 01:06:17;;;;;;;2.60;1.35;;;;;;;25.98;31.09;100728.94;5007235;28;20057;-68
2023/05/29 01:08:47;;;;;;;6.22;1.40;;;;;;;25.92;32.20;100729.13;5007103;28;20056;-68
2023/05/29 01:11:28;;;;;;;4.75;1.50;;;;;;;25.86;32.10;100724.00;5008038;28;20064;-67
2023/05/29 01:14:02;;;;;;;6.28;1.30;;;;;;;25.87;35.11;100731.09;5007149;28;20321;-67
2023/05/29 01:16:37;;;;;;;3.92;1.42;;;;;;;25.86;36.54;100724.00;5006629;28;20057;-67
2023/05/29 01:19:18;;;;;;;3.95;1.63;;;;;;;25.86;33.67;100716.94;4999391;28;20045;-68
2023/05/29 01:22:03;;;;;;;6.18;1.33;;;;;;;25.88;32.37;100723.09;5006446;28;20049;-69
2023/05/29 01:24:43;;;;;;;3.90;1.65;;;;;;;25.89;33.18;100726.59;5004252;28;20046;-69
2023/05/29 01:27:17;;;;;;;83.68;60.42;;;;;;;25.86;32.25;100729.31;5005741;28;20062;-71
2023/05/29 01:29:48;;;;;;;17.92;12.20;;;;;;;25.79;32.88;100725.13;5006110;28;20500;-67
2023/05/29 01:32:16;;;;;;;77.47;60.73;;;;;;;25.79;34.11;100727.78;5007020;28;20053;-68
2023/05/29 01:34:45;;;;;;;6.68;4.13;;;;;;;25.77;34.49;100729.63;5007893;28;20185;-68
2023/05/29 01:37:14;;;;;;;5.85;1.60;;;;;;;25.77;35.03;100726.97;5005665;28;20053;-67
2023/05/29 01:39:42;;;;;;;5.72;1.48;;;;;;;25.77;34.11;100733.16;5005367;28;20108;-68
2023/05/29 01:42:13;;;;;;;6.22;1.45;;;;;;;25.77;33.21;100729.63;5004128;28;20045;-67
2023/05/29 01:44:43;;;;;;;4.35;1.55;;;;;;;25.71;33.56;100720.97;5003044;28;20057;-67
2023/05/29 01:47:11;;;;;;;3.90;1.42;;;;;;;25.67;35.39;100724.63;5005364;28;20066;-68
2023/05/29 01:49:41;;;;;;;3.55;1.70;;;;;;;25.63;33.57;100727.44;5006322;28;20066;-67
2023/05/29 01:52:09;;;;;;;4.05;1.40;;;;;;;25.60;34.37;100720.47;5002098;28;20053;-68
2023/05/29 01:54:40;;;;;;;26.05;3.55;;;;;;;25.50;35.38;100719.06;5006307;28;20042;-69
2023/05/29 01:57:09;;;;;;;45.63;4.18;;;;;;;25.39;36.13;100721.19;5005763;28;20100;-68
2023/05/29 01:59:40;;;;;;;8.60;1.70;;;;;;;25.29;36.97;100713.53;5003771;28;20058;-68
2023/05/29 02:02:09;;;;;;;4.63;1.50;;;;;;;25.22;36.35;100725.25;5002999;28;20046;-69
2023/05/29 02:04:38;;;;;;;4.68;1.85;;;;;;;25.11;35.84;100714.09;5005978;28;20041;-67
2023/05/29 02:07:06;;;;;;;3.97;1.45;;;;;;;25.07;36.16;100723.91;5006183;28;20061;-68
2023/05/29 02:09:36;;;;;;;5.03;1.70;;;;;;;25.03;36.57;100718.75;4999152;28;20046;-70
2023/05/29 02:12:05;;;;;;;2.83;1.67;;;;;;;24.97;37.11;100722.47;5004380;28;20057;-69
2023/05/29 02:14:33;;;;;;;4.43;1.63;;;;;;;24.86;36.27;100720.13;5006102;28;20108;-71
2023/05/29 02:17:07;;;;;;;4.10;1.60;;;;;;;24.79;36.61;100726.53;5003979;28;20050;-70
2023/05/29 02:19:36;;;;;;;2.33;1.20;;;;;;;24.69;36.22;100722.41;5007784;28;20180;-70
2023/05/29 02:22:05;;;;;;;7.43;1.60;;;;;;;24.61;35.82;100722.66;5009838;28;20096;-70
2023/05/29 02:24:34;;;;;;;4.25;1.60;;;;;;;24.55;38.23;100727.25;5009568;28;20554;-69
2023/05/29 02:27:03;;;;;;;3.50;1.42;;;;;;;24.41;37.49;100720.53;5009583;28;20062;-70
2023/05/29 02:29:31;;;;;;;4.95;1.48;;;;;;;24.38;38.20;100725.91;5009916;28;20172;-70
2023/05/29 02:32:00;;;;;;;4.72;1.75;;;;;;;24.30;38.06;100730.53;5005767;28;20500;-69
2023/05/29 02:34:30;;;;;;;5.10;1.50;;;;;;;24.23;38.12;100731.63;5021040;28;20046;-68
2023/05/29 02:36:58;;;;;;;5.13;1.77;;;;;;;24.12;38.50;100731.03;5026865;28;20038;-68
2023/05/29 02:39:30;;;;;;;5.15;1.95;;;;;;;24.07;37.84;100719.75;5009054;28;20657;-68
2023/05/29 02:41:58;;;;;;;4.25;1.98;;;;;;;24.01;38.42;100720.78;5002263;28;20050;-68
2023/05/29 02:44:27;;;;;;;5.40;1.70;;;;;;;23.95;38.93;100726.22;5005636;28;20048;-69
2023/05/29 02:46:56;;;;;;;3.38;1.58;;;;;;;23.85;39.53;100720.31;5005853;28;20052;-69
2023/05/29 02:49:24;;;;;;;4.22;1.85;;;;;;;23.77;39.71;100728.44;5005791;28;20110;-69
2023/05/29 02:51:58;;;;;;;5.10;1.88;;;;;;;23.70;39.28;100725.97;5003679;28;20093;-68
2023/05/29 02:54:27;;;;;;;4.75;1.65;;;;;;;23.65;39.52;100727.84;5003763;28;20053;-70
2023/05/29 02:56:56;;;;;;;4.85;1.50;;;;;;;23.58;39.57;100722.72;5002876;28;20053;-69
2023/05/29 02:59:24;;;;;;;2.92;1.45;;;;;;;23.49;39.87;100725.59;4999478;28;20046;-69
2023/05/29 03:01:54;;;;;;;5.80;1.48;;;;;;;23.39;40.14;100726.72;4993184;28;20046;-69
2023/05/29 03:04:22;;;;;;;2.95;1.80;;;;;;;23.34;40.69;100728.59;4995102;28;20113;-68
2023/05/29 03:06:52;;;;;;;3.70;1.60;;;;;;;23.26;40.75;100738.47;4995075;28;20053;-69
2023/05/29 03:09:23;;;;;;;7.57;2.08;;;;;;;23.15;42.06;100733.44;5006896;28;20070;-68
2023/05/29 03:11:51;;;;;;;2.95;1.35;;;;;;;23.04;42.50;100741.59;4995847;28;20086;-68
2023/05/29 03:14:22;;;;;;;3.67;1.58;;;;;;;22.96;41.58;100732.94;5003577;28;20058;-69
2023/05/29 03:16:52;;;;;;;3.78;1.60;;;;;;;22.89;42.10;100734.00;5003013;28;20100;-69
2023/05/29 03:19:21;;;;;;;3.78;1.83;;;;;;;22.79;41.29;100739.47;5000464;28;20057;-69
2023/05/29 03:21:50;;;;;;;6.40;1.60;;;;;;;22.71;41.61;100744.03;4995238;28;20050;-69
2023/05/29 03:24:18;;;;;;;5.22;1.63;;;;;;;22.64;40.41;100749.47;5002733;28;20056;-69
2023/05/29 03:26:52;;;;;;;3.90;1.73;;;;;;;22.49;39.89;100748.00;4998919;28;20097;-69
2023/05/29 03:29:20;;;;;;;5.80;1.73;;;;;;;22.37;41.62;100746.47;4999077;28;20058;-68
2023/05/29 03:31:49;;;;;;;4.78;2.05;;;;;;;22.27;41.24;100744.94;4996876;28;20531;-69
2023/05/29 03:34:17;;;;;;;5.25;1.70;;;;;;;22.13;40.31;100745.16;5002977;28;20417;-69
2023/05/29 03:36:46;;;;;;;4.65;1.90;;;;;;;22.03;40.54;100744.44;4999167;28;20439;-69
2023/05/29 03:39:15;;;;;;;6.65;1.73;;;;;;;21.89;41.70;100743.81;5003523;28;20053;-69
2023/05/29 03:41:43;;;;;;;4.45;1.77;;;;;;;21.77;40.27;100746.66;5004759;28;20050;-68
2023/05/29 03:44:13;;;;;;;5.15;1.85;;;;;;;21.66;40.78;100744.19;4997760;28;20059;-68
2023/05/29 03:46:42;;;;;;;6.72;2.00;;;;;;;21.54;40.77;100750.53;4997744;28;20377;-68
2023/05/29 03:49:12;;;;;;;4.72;1.70;;;;;;;21.46;41.48;100750.66;4995725;28;20122;-68
2023/05/29 03:51:41;;;;;;;3.88;1.80;;;;;;;21.38;43.08;100755.13;4998995;28;20092;-68
2023/05/29 03:54:10;;;;;;;3.30;1.60;;;;;;;21.31;42.44;100753.50;4997149;28;20050;-69
2023/05/29 03:56:38;;;;;;;5.10;1.60;;;;;;;21.25;42.43;100764.97;5003652;28;20049;-68
2023/05/29 03:59:07;;;;;;;3.47;1.83;;;;;;;21.18;42.19;100758.06;5004310;28;20575;-69
2023/05/29 04:01:37;;;;;;;4.00;1.40;;;;;;;21.11;42.86;100770.41;4998239;28;20061;-69
2023/05/29 04:04:06;;;;;;;5.85;1.55;;;;;;;21.04;43.68;100771.41;5001581;28;20056;-68
2023/05/29 04:06:41;;;;;;;5.97;1.95;;;;;;;21.00;43.07;100774.94;5003373;28;20064;-71
2023/05/29 04:09:11;;;;;;;3.53;1.75;;;;;;;20.87;43.41;100768.13;5004510;28;20120;-69
2023/05/29 04:11:41;;;;;;;4.25;1.40;;;;;;;20.80;43.66;100777.84;5007548;28;20105;-67
2023/05/29 04:14:10;;;;;;;5.18;1.30;;;;;;;20.68;45.03;100780.63;5006648;28;20064;-67
2023/05/29 04:16:40;;;;;;;3.83;1.20;;;;;;;20.55;44.69;100782.50;5005263;28;20629;-68
2023/05/29 04:19:08;;;;;;;2.75;1.10;;;;;;;20.40;44.27;100772.16;5001067;28;20534;-69
2023/05/29 04:21:37;;;;;;;2.88;1.38;;;;;;;20.36;44.74;100783.56;5006657;28;20054;-69
2023/05/29 04:24:08;;;;;;;5.28;1.30;;;;;;;20.28;46.62;100791.53;5006817;28;20053;-68
2023/05/29 04:26:40;;;;;;;4.20;2.03;;;;;;;20.16;45.26;100795.16;5002384;28;20049;-68
2023/05/29 04:29:12;;;;;;;3.03;1.30;;;;;;;20.10;45.63;100797.84;5008368;28;20138;-68
2023/05/29 04:31:42;;;;;;;3.25;1.27;;;;;;;20.01;45.89;100795.28;5011691;28;20080;-69
2023/05/29 04:34:11;;;;;;;3.13;1.40;;;;;;;19.94;46.49;100796.25;5012192;28;20449;-67
2023/05/29 04:36:40;;;;;;;9.00;1.63;;;;;;;19.86;46.67;100799.81;5005592;28;20050;-66
2023/05/29 04:39:08;;;;;;;3.03;1.40;;;;;;;19.77;46.45;100799.88;5005607;28;20496;-68
2023/05/29 04:41:37;;;;;;;3.38;1.48;;;;;;;19.72;46.49;100798.16;5008210;28;20567;-67
2023/05/29 04:44:06;;;;;;;3.50;1.70;;;;;;;19.64;47.61;100795.56;5011737;28;20060;-68
2023/05/29 04:46:35;;;;;;;2.72;1.30;;;;;;;19.56;47.57;100799.97;5001901;28;20057;-68
2023/05/29 04:49:05;;;;;;;1.88;1.20;;;;;;;19.50;47.46;100802.66;5009450;28;20054;-67
2023/05/29 04:51:35;;;;;;;2.47;1.35;;;;;;;19.43;47.36;100802.69;5006920;28;20053;-68
2023/05/29 04:54:06;;;;;;;5.65;1.63;;;;;;;19.37;47.42;100813.22;5005274;28;20064;-67
2023/05/29 04:56:40;;;;;;;4.43;1.60;;;;;;;19.33;47.66;100814.09;5003870;28;20104;-67
2023/05/29 04:59:08;;;;;;;4.05;1.33;;;;;;;19.23;48.23;100815.06;5003739;28;20046;-67
2023/05/29 05:01:37;;;;;;;5.20;1.60;;;;;;;19.18;48.53;100812.44;5006659;28;20058;-67
2023/05/29 05:04:07;;;;;;;5.50;1.45;;;;;;;19.11;49.75;100815.13;5002201;28;20050;-69
2023/05/29 05:06:36;;;;;;;2.25;1.40;;;;;;;19.02;50.02;100818.66;5007356;28;20050;-68
2023/05/29 05:09:04;;;;;;;4.72;1.65;;;;;;;18.96;50.34;100821.28;5004690;28;20501;-67
2023/05/29 05:11:33;;;;;;;4.38;1.15;;;;;;;18.87;49.95;100826.56;5012785;28;20061;-67
2023/05/29 05:14:01;;;;;;;6.55;1.60;;;;;;;18.79;49.96;100818.75;4998788;28;20045;-68
2023/05/29 05:16:30;;;;;;;4.55;1.50;;;;;;;18.73;50.55;100823.97;5006271;28;20045;-67
2023/05/29 05:18:58;;;;;;;7.40;1.30;;;;;;;18.65;53.08;100823.13;5007063;28;20721;-68
2023/05/29 05:21:30;;;;;;;4.65;1.35;;;;;;;18.57;51.76;100826.59;5002399;28;20480;-67
2023/05/29 05:23:59;;;;;;;3.00;1.38;;;;;;;18.48;51.08;100821.38;5009583;28;20046;-69
2023/05/29 05:26:27;;;;;;;4.30;1.27;;;;;;;18.43;51.17;100825.78;5000966;28;20958;-68
2023/05/29 05:28:56;;;;;;;4.80;1.27;;;;;;;18.36;51.54;100830.16;5001440;28;20091;-67
2023/05/29 05:31:25;;;;;;;1.50;1.08;;;;;;;18.27;51.72;100827.53;5004831;28;20104;-68
2023/05/29 05:33:54;;;;;;;3.83;1.05;;;;;;;18.21;51.96;100822.31;4998023;28;20574;-67
2023/05/29 05:36:22;;;;;;;6.22;1.23;;;;;;;18.15;52.01;100824.94;5006340;28;20054;-67
2023/05/29 05:38:52;;;;;;;4.38;1.30;;;;;;;18.09;52.91;100825.78;5005717;28;20279;-68
2023/05/29 05:41:21;;;;;;;2.47;1.50;;;;;;;18.01;52.82;100822.31;5003961;28;20050;-67
2023/05/29 05:43:49;;;;;;;6.40;1.67;;;;;;;17.95;53.23;100819.69;5006653;28;20149;-68
2023/05/29 05:46:18;;;;;;;3.92;1.60;;;;;;;17.88;52.90;100824.06;5008113;28;20131;-68
2023/05/29 05:48:47;;;;;;;2.90;1.40;;;;;;;17.83;53.07;100828.41;5001719;28;20046;-68
2023/05/29 05:51:15;;;;;;;4.38;1.33;;;;;;;17.76;52.80;100832.75;4999710;28;20050;-68
2023/05/29 05:53:45;;;;;;;3.00;1.10;;;;;;;17.70;53.79;100832.72;5007299;28;20060;-68
2023/05/29 05:56:15;;;;;;;4.47;1.40;;;;;;;17.66;53.59;100833.63;5004305;28;20042;-67
2023/05/29 05:58:43;;;;;;;3.75;1.55;;;;;;;17.59;54.29;100824.88;5005353;28;20495;-68
2023/05/29 06:01:12;;;;;;;5.00;1.50;;;;;;;17.52;54.68;100837.91;5002217;28;20451;-68
2023/05/29 06:03:41;;;;;;;6.03;1.80;;;;;;;17.46;54.44;100828.34;4998025;28;20068;-68
2023/05/29 06:06:10;;;;;;;2.38;0.98;;;;;;;17.42;56.92;100834.41;4997930;28;20053;-67
2023/05/29 06:08:40;;;;;;;5.57;1.83;;;;;;;17.37;56.49;100828.31;5002022;28;20132;-67
2023/05/29 06:11:08;;;;;;;3.58;1.50;;;;;;;17.31;55.94;100826.53;5006310;28;20108;-67
2023/05/29 06:13:39;;;;;;;3.42;1.25;;;;;;;17.28;55.80;100831.75;4985413;28;20100;-67
2023/05/29 06:16:07;;;;;;;4.47;1.58;;;;;;;17.27;56.05;100835.25;4987246;28;20050;-68
2023/05/29 06:18:36;;;;;;;5.30;1.42;;;;;;;17.25;55.99;100833.47;4984652;28;20101;-68
2023/05/29 06:21:05;;;;;;;6.75;1.70;;;;;;;17.20;55.65;100830.84;4984654;28;20054;-68
2023/05/29 06:23:34;;;;;;;2.35;1.52;;;;;;;17.17;55.37;100830.84;4986738;28;20050;-67
2023/05/29 06:26:03;;;;;;;6.85;1.85;;;;;;;17.17;56.25;100836.09;4982030;28;20054;-68
2023/05/29 06:28:31;;;;;;;3.70;1.20;;;;;;;17.07;56.13;100829.09;4978063;28;20043;-68
2023/05/29 06:31:01;;;;;;;4.38;1.23;;;;;;;17.11;56.54;100836.03;4984902;28;20042;-68
2023/05/29 06:33:30;;;;;;;8.40;1.33;;;;;;;17.07;56.40;100839.53;4986192;28;20069;-68
2023/05/29 06:35:58;;;;;;;3.45;1.40;;;;;;;17.04;56.53;100839.50;4986517;28;20052;-67
2023/05/29 06:38:27;;;;;;;1.88;1.20;;;;;;;16.91;56.72;100823.78;4984735;28;20049;-68
2023/05/29 06:40:55;;;;;;;6.65;1.23;;;;;;;16.91;56.84;100830.75;4985775;28;20062;-68
2023/05/29 06:43:24;;;;;;;5.57;1.42;;;;;;;16.83;56.83;100825.47;4980251;28;20198;-67
2023/05/29 06:45:52;;;;;;;2.70;1.60;;;;;;;16.78;58.01;100826.28;4988704;28;20066;-68
2023/05/29 06:48:23;;;;;;;3.88;1.42;;;;;;;16.70;58.18;100823.66;4988594;28;20113;-68
2023/05/29 06:50:51;;;;;;;2.53;1.40;;;;;;;16.65;57.89;100820.13;4984521;28;20057;-67
2023/05/29 06:53:20;;;;;;;5.05;1.60;;;;;;;16.60;58.05;100821.84;4985414;28;20050;-68
2023/05/29 06:55:48;;;;;;;2.33;1.42;;;;;;;16.55;57.79;100825.28;4983270;28;20116;-68
2023/05/29 06:58:17;;;;;;;5.68;1.50;;;;;;;16.52;58.90;100824.41;4977871;28;20073;-69
2023/05/29 07:00:45;;;;;;;3.22;1.52;;;;;;;16.47;58.25;100821.78;4984128;28;20639;-67
2023/05/29 07:03:14;;;;;;;3.33;1.48;;;;;;;16.44;58.73;100816.50;4980773;28;20489;-68
2023/05/29 07:05:44;;;;;;;2.60;1.20;;;;;;;16.44;58.60;100821.72;4983380;28;20054;-68
2023/05/29 07:08:13;;;;;;;6.55;1.30;;;;;;;16.44;58.15;100819.13;4983773;28;20561;-68
2023/05/29 07:10:41;;;;;;;5.65;1.02;;;;;;;16.44;58.36;100821.72;4980575;28;20097;-68
2023/05/29 07:13:10;;;;;;;4.65;1.50;;;;;;;16.42;59.18;100825.19;4996279;28;20066;-68
2023/05/29 07:15:39;;;;;;;3.15;1.05;;;;;;;16.37;58.34;100832.13;5004754;28;20100;-69
2023/05/29 07:18:08;;;;;;;5.03;1.48;;;;;;;16.36;59.05;100827.78;5000258;28;20041;-68
2023/05/29 07:20:37;;;;;;;2.83;1.67;;;;;;;16.33;59.44;100823.41;5005092;28;20567;-67
2023/05/29 07:23:07;;;;;;;2.47;1.30;;;;;;;16.30;58.77;100824.25;5004413;28;20137;-68
2023/05/29 07:25:36;;;;;;;5.45;1.45;;;;;;;16.28;58.63;100830.34;5002110;28;20050;-68
2023/05/29 07:28:05;;;;;;;5.13;1.20;;;;;;;16.25;59.57;100825.09;5002801;28;20057;-68
2023/05/29 07:30:33;;;;;;;2.15;0.95;;;;;;;16.22;59.56;100835.53;5004435;28;20562;-67
2023/05/29 07:33:02;;;;;;;7.07;1.35;;;;;;;16.20;60.83;100837.25;5002934;28;20496;-67
2023/05/29 07:35:32;;;;;;;4.68;1.20;;;;;;;16.16;59.79;100836.34;5000252;28;20050;-66
2023/05/29 07:38:01;;;;;;;2.67;0.98;;;;;;;16.12;59.60;100835.41;5004363;28;20050;-67
2023/05/29 07:40:31;;;;;;;3.67;1.50;;;;;;;16.07;59.21;100847.56;5004140;28;20049;-67
2023/05/29 07:43:00;;;;;;;6.65;1.52;;;;;;;16.01;59.79;100839.72;5011641;28;20061;-66
2023/05/29 07:45:29;;;;;;;2.83;1.00;;;;;;;15.96;59.89;100841.38;5006094;28;20559;-67
2023/05/29 07:47:58;;;;;;;3.83;1.30;;;;;;;15.93;60.64;100836.16;5005740;28;20089;-67
2023/05/29 07:50:26;;;;;;;5.22;1.10;;;;;;;15.89;60.09;100827.41;5004150;28;20133;-67
2023/05/29 07:52:55;;;;;;;4.68;1.30;;;;;;;15.85;60.52;100833.47;5007004;28;20042;-67
2023/05/29 07:55:24;;;;;;;3.55;1.42;;;;;;;15.84;60.00;100828.25;5006739;28;20056;-68
2023/05/29 07:57:54;;;;;;;1.88;1.35;;;;;;;15.82;60.29;100835.16;5006584;28;20054;-67
2023/05/29 08:00:23;;;;;;;3.72;1.30;;;;;;;15.82;60.88;100837.78;5010280;28;20702;-67
2023/05/29 08:02:52;;;;;;;2.63;1.38;;;;;;;15.80;60.22;100832.53;5007839;28;20483;-68
2023/05/29 08:05:21;;;;;;;2.60;1.30;;;;;;;15.77;60.90;100829.03;5007592;28;20857;-68
2023/05/29 08:07:50;;;;;;;1.92;1.17;;;;;;;15.75;60.46;100825.53;5016379;28;20058;-67
2023/05/29 08:10:26;;;;;;;2.20;1.00;;;;;;;15.74;61.08;100832.50;5014307;28;20038;-67
2023/05/29 08:12:56;;;;;;;3.47;1.10;;;;;;;15.68;61.29;100825.44;5010678;28;20113;-67
2023/05/29 08:15:26;;;;;;;4.82;1.40;;;;;;;15.62;61.87;100821.91;5005008;28;20115;-67
2023/05/29 08:17:54;;;;;;;5.65;1.88;;;;;;;15.59;61.74;100827.09;5007666;28;20054;-67
2023/05/29 08:20:23;;;;;;;3.90;1.10;;;;;;;15.55;62.19;100820.97;5005061;28;20616;-67
2023/05/29 08:22:51;;;;;;;3.03;1.00;;;;;;;15.54;61.71;100819.22;5007787;28;20053;-68
2023/05/29 08:25:20;;;;;;;4.13;1.30;;;;;;;15.52;61.91;100826.16;5003294;28;20076;-68
2023/05/29 08:27:49;;;;;;;1.85;1.10;;;;;;;15.49;61.84;100826.13;5009013;28;20056;-68
2023/05/29 08:30:20;;;;;;;2.03;1.35;;;;;;;15.45;62.07;100829.56;5007824;28;20061;-67
2023/05/29 08:32:50;;;;;;;4.28;0.98;;;;;;;15.41;61.42;100833.84;5006706;28;20056;-69
2023/05/29 08:35:18;;;;;;;3.80;1.00;;;;;;;15.37;61.95;100826.88;5008048;28;20100;-67
2023/05/29 08:37:47;;;;;;;4.40;0.77;;;;;;;15.32;60.93;100822.47;5005959;28;20054;-67
2023/05/29 08:40:15;;;;;;;3.17;1.10;;;;;;;15.26;60.92;100823.28;5002458;28;20078;-67
2023/05/29 08:42:49;;;;;;;3.25;1.10;;;;;;;15.23;60.88;100829.34;5005790;28;20528;-67
2023/05/29 08:45:21;;;;;;;2.40;0.98;;;;;;;15.19;63.70;100824.94;5001315;28;20484;-68
2023/05/29 08:47:53;;;;;;;1.05;0.95;;;;;;;15.16;66.55;100834.44;5007847;28;20053;-68
2023/05/29 08:50:23;;;;;;;1.27;0.82;;;;;;;15.13;67.00;100826.59;5007052;28;20049;-68
2023/05/29 08:52:52;;;;;;;1.98;0.90;;;;;;;15.07;65.33;100827.38;5003950;28;20041;-67
2023/05/29 08:55:21;;;;;;;3.38;0.95;;;;;;;15.00;64.35;100816.03;5005357;28;20054;-67
2023/05/29 08:57:50;;;;;;;4.38;0.98;;;;;;;14.95;65.21;100822.88;5008177;28;20598;-67
2023/05/29 09:00:22;;;;;;;2.28;1.25;;;;;;;14.91;63.65;100815.00;5007141;28;20054;-67
2023/05/29 09:02:53;;;;;;;7.60;1.42;;;;;;;14.86;64.02;100813.22;5002263;28;20133;-68
2023/05/29 09:05:29;;;;;;;4.68;1.13;;;;;;;14.83;64.47;100817.53;5007549;28;20053;-67
2023/05/29 09:07:58;;;;;;;1.90;1.00;;;;;;;14.77;64.83;100813.09;5003847;28;20144;-67
2023/05/29 09:10:27;;;;;;;5.85;1.27;;;;;;;14.70;64.34;100806.06;5003228;28;20049;-68
2023/05/29 09:12:56;;;;;;;3.70;1.38;;;;;;;14.66;63.32;100810.38;5005366;28;20132;-67
2023/05/29 09:15:27;;;;;;;1.63;0.98;;;;;;;14.68;62.89;100810.38;5008663;28;20056;-69
2023/05/29 09:17:57;;;;;;;1.83;0.88;;;;;;;14.68;62.06;100807.78;5004975;28;20050;-67
2023/05/29 09:20:27;;;;;;;1.95;0.90;;;;;;;14.68;61.59;100797.34;5009587;28;20052;-67
2023/05/29 09:22:57;;;;;;;1.30;0.65;;;;;;;14.67;61.26;100806.03;5004597;28;20133;-67
2023/05/29 09:25:27;;;;;;;1.88;0.90;;;;;;;14.68;60.46;100806.91;4997646;28;20128;-67
2023/05/29 09:27:57;;;;;;;3.92;0.90;;;;;;;14.68;60.10;100812.97;5007879;28;20072;-67
2023/05/29 09:30:39;;;;;;;1.60;0.90;;;;;;;14.69;59.81;100814.75;5003209;28;20050;-67
2023/05/29 09:33:09;;;;;;;4.10;1.13;;;;;;;14.68;59.03;100818.19;5010422;28;20046;-67
2023/05/29 09:35:39;;;;;;;0.93;0.70;;;;;;;14.69;59.95;100819.94;5006356;28;20127;-68
2023/05/29 09:38:08;;;;;;;1.88;0.80;;;;;;;14.68;58.51;100823.41;5004618;28;20082;-68
2023/05/29 09:40:39;;;;;;;1.15;0.80;;;;;;;14.68;58.90;100818.19;5005478;28;20062;-67
2023/05/29 09:43:11;;;;;;;5.18;1.25;;;;;;;14.67;58.29;100816.44;5005122;28;20053;-68
2023/05/29 09:45:43;;;;;;;0.70;0.50;;;;;;;14.66;58.44;100817.31;5002340;28;20495;-67
2023/05/29 09:48:14;;;;;;;4.97;1.45;;;;;;;14.62;58.41;100823.34;5001168;28;20046;-68
2023/05/29 09:50:47;;;;;;;3.45;0.70;;;;;;;14.58;58.56;100816.31;5005288;28;20053;-67
2023/05/29 09:53:21;;;;;;;2.92;1.10;;;;;;;14.51;59.75;100814.47;5007141;28;20105;-68
2023/05/29 09:55:50;;;;;;;2.85;0.98;;;;;;;14.45;58.79;100823.03;5006976;28;20447;-68
2023/05/29 09:58:20;;;;;;;1.50;0.90;;;;;;;14.39;59.36;100821.22;5005217;28;20046;-68
2023/05/29 10:00:51;;;;;;;2.95;1.00;;;;;;;14.33;61.20;100821.13;5010243;28;20156;-68
2023/05/29 10:03:21;;;;;;;3.17;1.10;;;;;;;14.27;61.17;100823.66;5005690;28;20042;-67
2023/05/29 10:05:52;;;;;;;2.60;0.90;;;;;;;14.25;60.66;100827.97;5008275;28;20056;-68
2023/05/29 10:08:22;;;;;;;3.85;0.73;;;;;;;14.25;60.08;100822.75;5005859;28;20049;-67
2023/05/29 10:10:57;;;;;;;3.70;1.02;;;;;;;14.23;60.02;100827.06;5003267;28;20062;-68
2023/05/29 10:13:29;;;;;;;5.03;1.02;;;;;;;14.19;60.34;100822.66;5007986;28;20097;-68
2023/05/29 10:16:02;;;;;;;6.60;1.65;;;;;;;14.16;60.53;100833.03;5004843;28;20574;-68
2023/05/29 10:18:37;;;;;;;4.10;1.17;;;;;;;14.12;61.79;100836.41;5004433;28;20045;-68
2023/05/29 10:21:08;;;;;;;3.22;1.23;;;;;;;14.00;61.90;100848.38;5003453;28;20389;-68
2023/05/29 10:23:39;;;;;;;2.35;0.73;;;;;;;13.93;62.64;100848.25;5007442;28;20054;-68
2023/05/29 10:26:14;;;;;;;2.47;1.10;;;;;;;13.89;62.25;100849.91;5008500;28;20510;-68
2023/05/29 10:28:46;;;;;;;4.95;1.15;;;;;;;13.88;62.77;100848.19;5005509;28;20058;-68
2023/05/29 10:31:18;;;;;;;;;;;;;;;13.86;62.92;100844.66;5007491;28;20720;-67
2023/05/29 10:34:03;;;;;;;1.92;0.80;;;;;;;13.83;62.49;100832.50;5002329;28;19929;-68
2023/05/29 10:36:37;;;;;;;1.30;1.10;;;;;;;13.83;62.60;100849.78;5003894;28;20586;-68
2023/05/29 10:39:07;;;;;;;2.53;1.10;;;;;;;13.81;62.86;100841.09;5004794;28;20111;-68
2023/05/29 10:41:39;;;;;;;1.50;1.40;;;;;;;13.79;63.03;100827.22;5005137;28;20057;-68
2023/05/29 10:44:43;;;;;;;1.15;0.70;;;;;;;13.74;62.56;100834.03;5009921;28;20056;-67
2023/05/29 10:47:14;;;;;;;1.55;0.88;;;;;;;13.69;62.00;100831.34;5002985;28;20057;-67
2023/05/29 10:49:52;;;;;;;3.88;1.08;;;;;;;13.65;62.07;100829.53;5009139;28;20061;-66
2023/05/29 10:52:22;;;;;;;1.38;1.00;;;;;;;13.64;62.49;100827.78;5016399;28;20129;-66
2023/05/29 10:54:56;;;;;;;2.88;1.15;;;;;;;13.62;64.23;100825.16;5008704;28;20060;-66
2023/05/29 10:57:26;;;;;;;3.03;1.00;;;;;;;13.58;65.80;100822.47;5001391;28;20037;-67
2023/05/29 11:00:06;;;;;;;3.47;1.00;;;;;;;13.51;65.85;100837.09;5005269;28;20061;-66
2023/05/29 11:02:39;;;;;;;4.47;0.95;;;;;;;13.45;66.38;100834.38;5005723;28;20053;-67
2023/05/29 11:05:24;;;;;;;1.15;1.05;;;;;;;13.41;65.63;100838.63;5005094;28;20053;-68
2023/05/29 11:07:59;;;;;;;4.80;1.17;;;;;;;13.34;66.04;100844.56;4996946;28;20058;-69
2023/05/29 11:10:58;;;;;;;1.98;1.20;;;;;;;13.31;66.26;100843.63;5003206;28;20053;-68
2023/05/29 11:13:28;;;;;;;2.30;0.80;;;;;;;13.31;65.97;100848.81;5004224;28;20046;-68
2023/05/29 11:16:38;;;;;;;4.70;1.10;;;;;;;13.29;65.52;100846.22;5003016;28;20049;-68
2023/05/29 11:19:10;;;;;;;1.63;1.00;;;;;;;13.28;65.67;100853.97;5005906;28;20121;-68
2023/05/29 11:22:00;;;;;;;2.50;0.90;;;;;;;13.24;66.13;100846.91;5006288;28;20062;-67
2023/05/29 11:24:30;;;;;;;8.45;1.48;;;;;;;13.19;65.77;100845.13;5007871;28;20045;-67
2023/05/29 11:27:05;;;;;;;4.53;1.15;;;;;;;13.16;66.32;100846.75;5001917;28;20571;-67
2023/05/29 11:29:33;;;;;;;7.00;2.10;;;;;;;13.11;66.89;100851.88;5007788;28;20050;-67
2023/05/29 11:32:04;;;;;;;4.88;1.38;;;;;;;13.07;66.91;100850.03;5005420;28;20168;-68
2023/05/29 11:34:35;;;;;;;6.40;1.25;;;;;;;13.02;67.00;100849.09;5002563;28;20074;-68
2023/05/29 11:37:04;;;;;;;2.22;1.13;;;;;;;12.96;67.04;100851.53;5006876;28;20065;-67
2023/05/29 11:39:37;;;;;;;2.22;1.30;;;;;;;12.90;67.19;100852.31;5001860;28;20050;-68